aviador You're here:

LFSO Decoded Metar

NANCY OCHEY in FRANCE
Report Time2017-11-22 05:00:00
UTC Time2017-11-22 05:22:31
Flight Rules vfr VFR
Wind150° at 08 kt
W.Decomp.*RWY 20: 5.1 kt HW 6.1 kt LCW
W.Rank150° ranks 9
Current wind is above 150° avg. (5.4)
Visibility9999 m
Phenomena:N/A
Clouds:N/A
Expected CloudBase > 400 ft AGL from Temp-Dew spread
CeilingNone
Temp03°C (ISA -10)
Dew Point02°C (93% RH)
AAT-1.6°C
QNH1013 hPa
Density Alt72 ft
Elevation1,148 ft
Report Wrong Elevation
Raw Report
LFSO 220500Z AUTO 15008KT CAVOK 03/02 Q1013=

Extra information for LFSO:More info

Metar Taf Metar & Taf Last 4 Metars F.Rules Stats Wind Profile Meteogram Temp Stats Airport Information Weather charts Add Link Nearby VenuesMetar ALERT Operation Metar Decoded Social comments